createdAt,value
2023-02-04T00:00:50.857Z,17.48
2023-02-04T00:03:33.491Z,17.35
2023-02-04T00:06:15.557Z,17.42
2023-02-04T00:09:08.241Z,18.05
2023-02-04T00:11:56.836Z,16.88
2023-02-04T00:14:40.938Z,16.33
2023-02-04T00:17:21.959Z,16.67
2023-02-04T00:20:04.677Z,16.27
2023-02-04T00:22:49.599Z,16.50
2023-02-04T00:25:28.463Z,16.00
2023-02-04T00:28:13.549Z,17.25
2023-02-04T00:30:54.722Z,15.93
2023-02-04T00:33:43.929Z,15.60
2023-02-04T00:36:26.060Z,15.32
2023-02-04T00:39:05.875Z,14.90
2023-02-04T00:42:00.013Z,15.90
2023-02-04T00:44:49.201Z,14.20
2023-02-04T00:47:36.422Z,14.85
2023-02-04T00:50:19.317Z,14.55
2023-02-04T00:53:10.604Z,15.98
2023-02-04T00:56:16.208Z,15.63
2023-02-04T00:59:07.398Z,17.50
2023-02-04T01:02:10.557Z,15.40
2023-02-04T01:05:13.776Z,16.13
2023-02-04T01:08:40.624Z,15.80
2023-02-04T01:11:53.950Z,15.20
2023-02-04T01:15:02.153Z,15.80
2023-02-04T01:18:00.836Z,15.80
2023-02-04T01:20:43.728Z,15.00
2023-02-04T01:24:04.880Z,14.75
2023-02-04T01:27:08.498Z,15.35
2023-02-04T01:30:56.462Z,15.25
2023-02-04T01:36:53.750Z,14.85
2023-02-04T01:42:55.960Z,15.18
2023-02-04T01:45:43.672Z,14.55
2023-02-04T01:48:38.956Z,15.07
2023-02-04T01:51:57.737Z,13.88
2023-02-04T01:58:13.508Z,15.85
2023-02-04T02:01:02.014Z,14.60
2023-02-04T02:04:08.059Z,15.35
2023-02-04T02:06:59.843Z,15.52
2023-02-04T02:10:02.560Z,14.82
2023-02-04T02:12:42.181Z,15.02
2023-02-04T02:15:39.586Z,15.68
2023-02-04T02:19:08.070Z,14.95
2023-02-04T02:22:11.759Z,15.50
2023-02-04T02:25:03.749Z,14.32
2023-02-04T02:27:46.563Z,13.38
2023-02-04T02:30:35.195Z,14.25
2023-02-04T02:33:31.356Z,14.65
2023-02-04T02:36:30.187Z,13.90
2023-02-04T02:39:25.393Z,13.88
2023-02-04T02:42:30.983Z,14.40
2023-02-04T02:45:57.233Z,14.75
2023-02-04T02:48:41.189Z,15.63
2023-02-04T02:54:48.342Z,15.40
2023-02-04T02:57:46.273Z,15.18
2023-02-04T03:01:11.196Z,15.48
2023-02-04T03:04:03.680Z,15.25
2023-02-04T03:06:45.256Z,15.35
2023-02-04T03:09:26.783Z,15.85
2023-02-04T03:15:58.555Z,15.23
2023-02-04T03:18:42.690Z,14.18
2023-02-04T03:21:41.195Z,14.68
2023-02-04T03:24:35.861Z,14.38
2023-02-04T03:27:34.198Z,15.70
2023-02-04T03:30:32.546Z,14.80
2023-02-04T03:36:29.824Z,15.18
2023-02-04T03:39:09.150Z,14.70
2023-02-04T03:42:06.217Z,14.98
2023-02-04T03:45:44.617Z,13.95
2023-02-04T03:48:42.611Z,14.55
2023-02-04T03:51:47.527Z,16.63
2023-02-04T03:54:33.981Z,15.50
2023-02-04T03:57:27.629Z,16.05
2023-02-04T04:00:22.887Z,15.88
2023-02-04T04:03:06.691Z,15.38
2023-02-04T04:05:57.191Z,18.15
2023-02-04T04:08:44.088Z,16.60
2023-02-04T04:11:22.251Z,16.95
2023-02-04T04:17:08.087Z,16.85
2023-02-04T04:20:02.039Z,16.92
2023-02-04T04:22:46.614Z,16.83
2023-02-04T04:25:41.523Z,16.08
2023-02-04T04:28:45.853Z,16.92
2023-02-04T04:31:37.974Z,17.42
2023-02-04T04:34:39.642Z,18.45
2023-02-04T04:37:30.828Z,17.58
2023-02-04T04:40:16.538Z,16.67
2023-02-04T04:42:58.714Z,15.90
2023-02-04T04:45:57.532Z,17.73
2023-02-04T04:51:58.714Z,16.83
2023-02-04T04:54:53.738Z,16.08
2023-02-04T04:57:43.279Z,16.52
2023-02-04T05:00:30.177Z,16.65
2023-02-04T05:06:09.523Z,15.30
2023-02-04T05:08:45.552Z,16.63
2023-02-04T05:11:30.269Z,17.20
2023-02-04T05:16:57.188Z,17.40
2023-02-04T05:19:46.363Z,17.58
2023-02-04T05:22:58.421Z,16.17
2023-02-04T05:26:03.324Z,18.33
2023-02-04T05:29:25.353Z,17.23
2023-02-04T05:32:23.191Z,17.80
2023-02-04T05:34:56.874Z,17.00
2023-02-04T05:37:47.154Z,17.75
2023-02-04T05:40:39.203Z,18.55
2023-02-04T05:43:41.863Z,16.95
2023-02-04T05:49:54.746Z,16.93
2023-02-04T05:52:49.321Z,17.52
2023-02-04T05:56:12.537Z,17.50
2023-02-04T05:58:57.430Z,17.27
2023-02-04T06:01:47.213Z,16.95
2023-02-04T06:04:32.394Z,16.60
2023-02-04T06:10:18.512Z,16.08
2023-02-04T06:13:27.628Z,16.88
2023-02-04T06:16:07.657Z,16.70
2023-02-04T06:18:44.168Z,16.83
2023-02-04T06:21:35.134Z,17.33
2023-02-04T06:24:08.993Z,17.92
2023-02-04T06:30:07.058Z,16.75
2023-02-04T06:32:42.683Z,16.52
2023-02-04T06:35:25.139Z,17.10
2023-02-04T06:38:06.604Z,15.70
2023-02-04T06:41:20.468Z,17.08
2023-02-04T06:43:56.618Z,14.50
2023-02-04T06:46:37.801Z,14.10
2023-02-04T06:49:32.739Z,14.25
2023-02-04T06:52:10.399Z,14.60
2023-02-04T06:54:51.790Z,14.43
2023-02-04T07:00:38.088Z,13.90
2023-02-04T07:06:03.793Z,10.27
2023-02-04T07:08:38.746Z,9.55
2023-02-04T07:11:12.281Z,8.75
2023-02-04T07:13:46.877Z,10.40
2023-02-04T07:16:17.182Z,9.45
2023-02-04T07:26:26.829Z,9.05
2023-02-04T07:28:57.056Z,10.10
2023-02-04T07:31:27.572Z,9.07
2023-02-04T07:33:54.924Z,9.00
2023-02-04T07:36:35.723Z,8.80
2023-02-04T07:39:24.023Z,7.35
2023-02-04T07:42:29.403Z,7.82
2023-02-04T07:48:27.281Z,8.40
2023-02-04T07:51:13.979Z,9.02
2023-02-04T07:53:50.366Z,8.35
2023-02-04T07:56:34.209Z,10.95
2023-02-04T07:59:29.410Z,10.48
2023-02-04T08:02:00.029Z,10.32
2023-02-04T08:04:48.626Z,10.90
2023-02-04T08:07:26.175Z,11.30
2023-02-04T08:10:19.437Z,12.20
2023-02-04T08:12:57.086Z,10.95
2023-02-04T08:15:27.897Z,9.07
2023-02-04T08:17:55.630Z,10.93
2023-02-04T08:20:29.622Z,9.50
2023-02-04T08:23:05.418Z,8.88
2023-02-04T08:28:15.334Z,7.95
2023-02-04T08:30:48.764Z,8.05
2023-02-04T08:33:27.471Z,8.98
2023-02-04T08:35:54.732Z,9.02
2023-02-04T08:38:29.319Z,9.95
2023-02-04T08:40:57.111Z,10.27
2023-02-04T08:43:24.644Z,11.60
2023-02-04T08:45:52.765Z,10.73
2023-02-04T08:48:22.168Z,11.00
2023-02-04T08:51:05.475Z,10.38
2023-02-04T08:53:58.085Z,11.23
2023-02-04T08:56:45.035Z,11.82
2023-02-04T08:59:19.808Z,11.50
2023-02-04T09:02:03.753Z,10.88
2023-02-04T09:04:39.616Z,10.63
2023-02-04T09:07:20.818Z,12.32
2023-02-04T09:09:48.388Z,12.90
2023-02-04T09:12:23.795Z,12.68
2023-02-04T09:14:53.652Z,11.85
2023-02-04T09:17:26.761Z,11.75
2023-02-04T09:22:46.490Z,11.27
2023-02-04T09:25:17.944Z,11.10
2023-02-04T09:27:48.614Z,10.55
2023-02-04T09:30:25.111Z,9.35
2023-02-04T09:33:06.551Z,9.25
2023-02-04T09:35:43.320Z,8.32
2023-02-04T09:38:14.318Z,8.55
2023-02-04T09:41:03.643Z,8.52
2023-02-04T09:43:49.413Z,9.50
2023-02-04T09:46:27.440Z,8.00
2023-02-04T09:49:10.704Z,7.75
2023-02-04T09:51:44.490Z,7.07
2023-02-04T09:54:25.582Z,8.68
2023-02-04T09:56:59.859Z,9.13
2023-02-04T09:59:31.495Z,8.93
2023-02-04T10:02:06.176Z,8.07
2023-02-04T10:04:45.389Z,7.60
2023-02-04T10:07:16.181Z,8.20
2023-02-04T10:09:43.742Z,7.72
2023-02-04T10:12:16.018Z,7.78
2023-02-04T10:15:22.700Z,9.32
2023-02-04T10:18:04.498Z,7.85
2023-02-04T10:20:32.859Z,7.82
2023-02-04T10:23:06.845Z,8.32
2023-02-04T10:25:36.595Z,6.45
2023-02-04T10:28:15.458Z,7.03
2023-02-04T10:30:46.637Z,8.07
2023-02-04T10:33:16.896Z,8.38
2023-02-04T10:35:56.130Z,9.38
2023-02-04T10:38:28.709Z,8.27
2023-02-04T10:41:17.928Z,7.90
2023-02-04T10:43:48.138Z,7.68
2023-02-04T10:46:20.510Z,8.70
2023-02-04T10:48:52.648Z,9.43
2023-02-04T10:51:30.450Z,8.68
2023-02-04T10:54:23.173Z,9.68
2023-02-04T10:56:54.612Z,9.40
2023-02-04T10:59:35.959Z,7.55
2023-02-04T11:05:21.361Z,7.03
2023-02-04T11:07:55.944Z,7.20
2023-02-04T11:10:31.823Z,7.00
2023-02-04T11:13:14.383Z,8.35
2023-02-04T11:15:51.008Z,8.15
2023-02-04T11:18:22.762Z,8.05
2023-02-04T11:20:58.085Z,7.30
2023-02-04T11:23:48.985Z,7.47
2023-02-04T11:26:45.034Z,8.02
2023-02-04T11:29:39.505Z,6.95
2023-02-04T11:32:32.712Z,7.32
2023-02-04T11:35:33.582Z,8.07
2023-02-04T11:38:19.618Z,7.93
2023-02-04T11:40:59.816Z,8.00
2023-02-04T11:43:42.697Z,7.43
2023-02-04T11:46:20.525Z,6.63
2023-02-04T11:48:57.104Z,7.20
2023-02-04T11:51:32.343Z,7.35
2023-02-04T11:57:00.666Z,7.13
2023-02-04T11:59:30.120Z,8.23
2023-02-04T12:02:35.557Z,6.90
2023-02-04T12:05:36.343Z,7.15
2023-02-04T12:08:28.386Z,7.38
2023-02-04T12:11:31.874Z,7.22
2023-02-04T12:14:13.914Z,7.57
2023-02-04T12:17:02.039Z,8.23
2023-02-04T12:22:21.128Z,7.43
2023-02-04T12:24:48.774Z,7.28
2023-02-04T12:27:17.853Z,7.18
2023-02-04T12:30:13.583Z,7.03
2023-02-04T12:36:02.410Z,7.10
2023-02-04T12:38:44.491Z,8.15
2023-02-04T12:41:22.986Z,7.28
2023-02-04T12:44:01.506Z,6.28
2023-02-04T12:46:48.797Z,7.00
2023-02-04T12:49:47.466Z,8.00
2023-02-04T12:52:27.666Z,7.85
2023-02-04T12:57:55.966Z,7.25
2023-02-04T13:00:32.624Z,7.15
2023-02-04T13:03:26.516Z,6.50
2023-02-04T13:06:05.313Z,8.18
2023-02-04T13:08:40.805Z,7.70
2023-02-04T13:11:18.344Z,7.30
2023-02-04T13:14:25.969Z,7.28
2023-02-04T13:19:51.503Z,7.97
2023-02-04T13:22:24.634Z,7.95
2023-02-04T13:24:56.242Z,6.80
2023-02-04T13:27:40.159Z,7.10
2023-02-04T13:30:25.451Z,7.78
2023-02-04T13:36:07.825Z,7.72
2023-02-04T13:41:39.623Z,7.25
2023-02-04T13:44:26.171Z,8.20
2023-02-04T13:47:28.211Z,6.75
2023-02-04T13:52:47.387Z,10.25
2023-02-04T13:55:38.642Z,11.35
2023-02-04T13:58:24.639Z,7.50
2023-02-04T14:04:15.527Z,7.07
2023-02-04T14:06:52.644Z,7.25
2023-02-04T14:09:20.187Z,9.68
2023-02-04T14:11:53.480Z,9.00
2023-02-04T14:14:39.802Z,10.15
2023-02-04T14:17:19.207Z,10.80
2023-02-04T14:19:52.053Z,11.20
2023-02-04T14:22:28.578Z,10.85
2023-02-04T14:24:59.817Z,10.50
2023-02-04T14:27:33.111Z,11.07
2023-02-04T14:30:09.231Z,9.07
2023-02-04T14:32:36.642Z,8.75
2023-02-04T14:35:45.156Z,10.38
2023-02-04T14:38:22.877Z,13.45
2023-02-04T14:41:05.712Z,12.05
2023-02-04T14:43:55.096Z,12.57
2023-02-04T14:46:32.523Z,13.10
2023-02-04T14:49:13.701Z,15.00
2023-02-04T14:51:53.193Z,12.93
2023-02-04T14:54:40.563Z,12.30
2023-02-04T14:57:23.475Z,12.82
2023-02-04T14:59:57.003Z,13.00
2023-02-04T15:02:46.134Z,12.40
2023-02-04T15:05:16.014Z,10.38
2023-02-04T15:07:53.872Z,10.68
2023-02-04T15:10:35.067Z,10.95
2023-02-04T15:13:08.891Z,11.55
2023-02-04T15:15:51.484Z,11.13
2023-02-04T15:18:29.277Z,13.05
2023-02-04T15:20:59.064Z,12.55
2023-02-04T15:27:12.039Z,12.65
2023-02-04T15:29:45.025Z,12.10
2023-02-04T15:32:15.959Z,12.40
2023-02-04T15:35:01.435Z,12.63
2023-02-04T15:40:20.836Z,12.25
2023-02-04T15:43:01.992Z,11.80
2023-02-04T15:45:33.746Z,12.52
2023-02-04T15:48:14.630Z,13.35
2023-02-04T15:50:57.666Z,12.18
2023-02-04T15:53:28.283Z,11.88
2023-02-04T15:55:58.207Z,12.05
2023-02-04T16:01:33.502Z,12.65
2023-02-04T16:04:10.004Z,12.55
2023-02-04T16:07:14.845Z,11.60
2023-02-04T16:09:47.138Z,9.00
2023-02-04T16:12:51.571Z,9.77
2023-02-04T16:21:10.069Z,7.63
2023-02-04T16:24:16.829Z,8.27
2023-02-04T16:26:58.313Z,9.35
2023-02-04T16:32:39.475Z,8.48
2023-02-04T16:35:15.836Z,8.90
2023-02-04T16:38:06.471Z,7.72
2023-02-04T16:40:41.113Z,7.80
2023-02-04T16:43:30.139Z,7.60
2023-02-04T16:49:26.983Z,7.57
2023-02-04T16:52:11.105Z,8.07
2023-02-04T16:54:47.384Z,7.70
2023-02-04T16:57:52.578Z,7.90
2023-02-04T17:00:42.013Z,8.55
2023-02-04T17:03:42.105Z,8.43
2023-02-04T17:06:19.922Z,7.88
2023-02-04T17:08:52.589Z,7.25
2023-02-04T17:11:44.398Z,7.60
2023-02-04T17:14:19.476Z,8.13
2023-02-04T17:16:58.081Z,8.38
2023-02-04T17:19:47.274Z,7.63
2023-02-04T17:22:25.327Z,7.78
2023-02-04T17:25:20.263Z,7.15
2023-02-04T17:30:53.880Z,6.88
2023-02-04T17:33:37.680Z,7.78
2023-02-04T17:36:11.208Z,6.82
2023-02-04T17:38:57.362Z,7.22
2023-02-04T17:41:50.073Z,7.35
2023-02-04T17:44:51.175Z,7.72
2023-02-04T17:51:04.676Z,6.85
2023-02-04T17:53:50.490Z,6.30
2023-02-04T17:56:34.138Z,8.32
2023-02-04T18:02:36.346Z,11.50
2023-02-04T18:05:36.296Z,9.98
2023-02-04T18:11:57.426Z,9.15
2023-02-04T18:18:06.995Z,7.97
2023-02-04T18:20:57.328Z,8.18
2023-02-04T18:24:44.054Z,8.18
2023-02-04T18:28:01.912Z,9.32
2023-02-04T18:31:28.926Z,8.63
2023-02-04T18:34:32.540Z,7.45
2023-02-04T18:37:40.139Z,7.55
2023-02-04T18:40:29.493Z,7.57
2023-02-04T18:43:43.128Z,7.13
2023-02-04T18:46:47.320Z,9.30
2023-02-04T18:49:45.582Z,8.70
2023-02-04T18:52:32.920Z,9.60
2023-02-04T18:55:30.818Z,8.98
2023-02-04T18:58:43.442Z,10.27
2023-02-04T19:01:48.572Z,8.73
2023-02-04T19:07:28.276Z,8.45
2023-02-04T19:10:32.004Z,9.93
2023-02-04T19:13:46.380Z,9.30
2023-02-04T19:19:46.419Z,9.25
2023-02-04T19:22:53.893Z,9.15
2023-02-04T19:26:24.172Z,8.60
2023-02-04T19:29:03.815Z,9.63
2023-02-04T19:31:41.474Z,9.32
2023-02-04T19:34:40.890Z,9.40
2023-02-04T19:37:27.930Z,10.73
2023-02-04T19:40:37.601Z,9.13
2023-02-04T19:43:30.309Z,11.27
2023-02-04T19:46:41.030Z,10.65
2023-02-04T19:49:46.007Z,10.32
2023-02-04T19:52:44.409Z,10.93
2023-02-04T19:55:48.140Z,11.13
2023-02-04T20:01:22.129Z,11.68
2023-02-04T20:04:13.814Z,11.32
2023-02-04T20:06:55.574Z,10.85
2023-02-04T20:09:37.984Z,9.85
2023-02-04T20:12:25.203Z,11.02
2023-02-04T20:15:00.344Z,11.30
2023-02-04T20:17:48.167Z,11.68
2023-02-04T20:23:39.212Z,11.10
2023-02-04T20:26:42.203Z,12.00
2023-02-04T20:29:30.760Z,11.27
2023-02-04T20:32:00.436Z,11.38
2023-02-04T20:34:42.394Z,12.07
2023-02-04T20:37:46.029Z,11.73
2023-02-04T20:40:34.211Z,12.40
2023-02-04T20:43:15.565Z,12.95
2023-02-04T20:46:05.025Z,11.82
2023-02-04T20:48:47.315Z,12.18
2023-02-04T20:51:38.613Z,13.60
2023-02-04T20:56:53.465Z,15.93
2023-02-04T20:59:44.174Z,18.20
2023-02-04T21:02:21.037Z,15.60
2023-02-04T21:05:17.464Z,15.98
2023-02-04T21:07:59.097Z,14.50
2023-02-04T21:10:31.982Z,13.60
2023-02-04T21:13:19.371Z,13.75
2023-02-04T21:15:53.854Z,14.23
2023-02-04T21:18:37.053Z,14.23
2023-02-04T21:21:23.370Z,14.27
2023-02-04T21:23:59.185Z,14.73
2023-02-04T21:27:07.902Z,13.25
2023-02-04T21:29:38.151Z,14.88
2023-02-04T21:32:14.107Z,15.73
2023-02-04T21:34:54.428Z,15.75
2023-02-04T21:37:24.169Z,16.48
2023-02-04T21:39:56.777Z,16.77
2023-02-04T21:42:36.001Z,15.18
2023-02-04T21:45:17.085Z,16.15
2023-02-04T21:47:49.629Z,14.57
2023-02-04T21:50:21.251Z,16.08
2023-02-04T21:52:54.951Z,16.38
2023-02-04T21:55:23.287Z,14.90
2023-02-04T21:57:59.703Z,15.05
2023-02-04T22:00:35.723Z,14.48
2023-02-04T22:03:24.453Z,15.75
2023-02-04T22:05:58.134Z,14.85
2023-02-04T22:08:30.893Z,15.55
2023-02-04T22:11:00.802Z,14.47
2023-02-04T22:13:52.661Z,16.15
2023-02-04T22:16:25.986Z,16.63
2023-02-04T22:18:53.279Z,15.65
2023-02-04T22:21:22.092Z,15.48
2023-02-04T22:23:54.911Z,15.07
2023-02-04T22:26:24.785Z,15.35
2023-02-04T22:29:00.896Z,16.70
2023-02-04T22:31:33.561Z,15.40
2023-02-04T22:34:17.538Z,15.27
2023-02-04T22:36:52.090Z,15.93
2023-02-04T22:39:28.006Z,16.10
2023-02-04T22:42:05.494Z,15.23
2023-02-04T22:44:38.893Z,16.13
2023-02-04T22:47:16.645Z,15.10
2023-02-04T22:49:48.656Z,16.17
2023-02-04T22:52:19.016Z,15.20
2023-02-04T22:54:48.675Z,15.85
2023-02-04T22:57:21.572Z,16.40
2023-02-04T22:59:56.500Z,15.83
2023-02-04T23:02:30.206Z,16.92
2023-02-04T23:05:00.088Z,15.70
2023-02-04T23:07:27.819Z,17.90
2023-02-04T23:09:58.023Z,17.40
2023-02-04T23:12:33.143Z,16.10
2023-02-04T23:15:16.217Z,16.23
2023-02-04T23:17:50.058Z,15.50
2023-02-04T23:20:29.085Z,16.17
2023-02-04T23:23:05.080Z,16.98
2023-02-04T23:25:51.465Z,16.35
2023-02-04T23:28:22.799Z,16.70
2023-02-04T23:30:57.061Z,15.73
2023-02-04T23:33:38.334Z,15.70
2023-02-04T23:36:10.232Z,17.40
2023-02-04T23:38:41.640Z,16.42
2023-02-04T23:41:20.379Z,16.17
2023-02-04T23:43:57.936Z,17.67
2023-02-04T23:46:36.362Z,16.80
2023-02-04T23:49:07.732Z,16.83
2023-02-04T23:51:43.390Z,17.20
2023-02-04T23:54:12.857Z,16.30
2023-02-04T23:56:46.019Z,17.77
2023-02-04T23:59:23.409Z,16.05
